sensor_id;sensor_type;location;lat;lon;timestamp;temperature;humidity
4312;DHT22;2169;49.086;9.284;2023-02-18T00:00:06;12.90;70.00
4312;DHT22;2169;49.086;9.284;2023-02-18T00:02:33;12.90;70.00
4312;DHT22;2169;49.086;9.284;2023-02-18T00:05:00;13.00;70.10
4312;DHT22;2169;49.086;9.284;2023-02-18T00:07:27;13.00;70.10
4312;DHT22;2169;49.086;9.284;2023-02-18T00:09:54;13.00;70.00
4312;DHT22;2169;49.086;9.284;2023-02-18T00:12:23;13.00;70.00
4312;DHT22;2169;49.086;9.284;2023-02-18T00:14:49;13.00;69.90
4312;DHT22;2169;49.086;9.284;2023-02-18T00:17:16;13.00;69.90
4312;DHT22;2169;49.086;9.284;2023-02-18T00:19:43;13.00;69.90
4312;DHT22;2169;49.086;9.284;2023-02-18T00:22:11;13.00;69.90
4312;DHT22;2169;49.086;9.284;2023-02-18T00:24:40;13.00;69.90
4312;DHT22;2169;49.086;9.284;2023-02-18T00:27:07;13.00;69.90
4312;DHT22;2169;49.086;9.284;2023-02-18T00:29:35;13.00;69.80
4312;DHT22;2169;49.086;9.284;2023-02-18T00:32:02;13.00;69.80
4312;DHT22;2169;49.086;9.284;2023-02-18T00:34:29;13.00;69.80
4312;DHT22;2169;49.086;9.284;2023-02-18T00:36:57;13.00;69.80
4312;DHT22;2169;49.086;9.284;2023-02-18T00:39:24;13.00;69.80
4312;DHT22;2169;49.086;9.284;2023-02-18T00:41:51;13.00;69.90
4312;DHT22;2169;49.086;9.284;2023-02-18T00:44:19;13.00;69.80
4312;DHT22;2169;49.086;9.284;2023-02-18T00:46:48;13.00;69.70
4312;DHT22;2169;49.086;9.284;2023-02-18T00:49:15;13.10;69.80
4312;DHT22;2169;49.086;9.284;2023-02-18T00:51:42;13.10;69.80
4312;DHT22;2169;49.086;9.284;2023-02-18T00:54:09;13.10;69.70
4312;DHT22;2169;49.086;9.284;2023-02-18T00:56:36;13.00;69.60
4312;DHT22;2169;49.086;9.284;2023-02-18T00:59:04;13.00;69.50
4312;DHT22;2169;49.086;9.284;2023-02-18T01:01:31;13.10;69.60
4312;DHT22;2169;49.086;9.284;2023-02-18T01:04:00;13.10;69.60
4312;DHT22;2169;49.086;9.284;2023-02-18T01:06:27;13.10;69.60
4312;DHT22;2169;49.086;9.284;2023-02-18T01:08:54;13.10;69.50
4312;DHT22;2169;49.086;9.284;2023-02-18T01:11:22;13.10;69.40
4312;DHT22;2169;49.086;9.284;2023-02-18T01:13:48;13.10;69.30
4312;DHT22;2169;49.086;9.284;2023-02-18T01:16:16;13.10;69.40
4312;DHT22;2169;49.086;9.284;2023-02-18T01:18:43;13.10;69.40
4312;DHT22;2169;49.086;9.284;2023-02-18T01:21:11;13.10;69.30
4312;DHT22;2169;49.086;9.284;2023-02-18T01:23:39;13.10;69.30
4312;DHT22;2169;49.086;9.284;2023-02-18T01:26:08;13.10;69.30
4312;DHT22;2169;49.086;9.284;2023-02-18T01:28:35;13.10;69.30
4312;DHT22;2169;49.086;9.284;2023-02-18T01:31:04;13.10;69.20
4312;DHT22;2169;49.086;9.284;2023-02-18T01:33:32;13.10;69.30
4312;DHT22;2169;49.086;9.284;2023-02-18T01:35:59;13.10;69.20
4312;DHT22;2169;49.086;9.284;2023-02-18T01:38:27;13.10;69.20
4312;DHT22;2169;49.086;9.284;2023-02-18T01:40:54;13.10;69.20
4312;DHT22;2169;49.086;9.284;2023-02-18T01:43:22;13.10;69.20
4312;DHT22;2169;49.086;9.284;2023-02-18T01:48:33;13.10;69.20
4312;DHT22;2169;49.086;9.284;2023-02-18T01:51:04;13.10;69.20
4312;DHT22;2169;49.086;9.284;2023-02-18T01:53:40;13.10;69.20
4312;DHT22;2169;49.086;9.284;2023-02-18T01:56:12;13.10;69.30
4312;DHT22;2169;49.086;9.284;2023-02-18T01:58:40;13.10;69.30
4312;DHT22;2169;49.086;9.284;2023-02-18T02:01:08;13.10;69.30
4312;DHT22;2169;49.086;9.284;2023-02-18T02:03:36;13.10;69.30
4312;DHT22;2169;49.086;9.284;2023-02-18T02:06:13;13.10;69.30
4312;DHT22;2169;49.086;9.284;2023-02-18T02:08:43;13.10;69.30
4312;DHT22;2169;49.086;9.284;2023-02-18T02:11:20;13.10;69.30
4312;DHT22;2169;49.086;9.284;2023-02-18T02:13:59;13.10;69.30
4312;DHT22;2169;49.086;9.284;2023-02-18T02:16:33;13.00;69.30
4312;DHT22;2169;49.086;9.284;2023-02-18T02:19:12;13.00;69.30
4312;DHT22;2169;49.086;9.284;2023-02-18T02:22:15;13.10;69.30
4312;DHT22;2169;49.086;9.284;2023-02-18T02:25:09;13.00;69.10
4312;DHT22;2169;49.086;9.284;2023-02-18T02:28:01;13.00;69.20
4312;DHT22;2169;49.086;9.284;2023-02-18T02:31:02;13.00;69.10
4312;DHT22;2169;49.086;9.284;2023-02-18T02:33:53;13.00;69.10
4312;DHT22;2169;49.086;9.284;2023-02-18T02:36:27;13.00;69.10
4312;DHT22;2169;49.086;9.284;2023-02-18T02:39:04;13.00;69.10
4312;DHT22;2169;49.086;9.284;2023-02-18T02:41:42;13.00;69.10
4312;DHT22;2169;49.086;9.284;2023-02-18T02:44:19;13.00;69.10
4312;DHT22;2169;49.086;9.284;2023-02-18T02:46:47;13.00;69.10
4312;DHT22;2169;49.086;9.284;2023-02-18T02:49:36;13.00;69.10
4312;DHT22;2169;49.086;9.284;2023-02-18T02:52:08;13.00;69.10
4312;DHT22;2169;49.086;9.284;2023-02-18T02:54:37;13.00;69.20
4312;DHT22;2169;49.086;9.284;2023-02-18T02:57:06;13.00;69.20
4312;DHT22;2169;49.086;9.284;2023-02-18T02:59:35;13.00;69.20
4312;DHT22;2169;49.086;9.284;2023-02-18T03:02:24;13.00;69.20
4312;DHT22;2169;49.086;9.284;2023-02-18T03:05:17;13.00;69.20
4312;DHT22;2169;49.086;9.284;2023-02-18T03:07:57;13.00;69.20
4312;DHT22;2169;49.086;9.284;2023-02-18T03:10:35;13.00;69.30
4312;DHT22;2169;49.086;9.284;2023-02-18T03:13:11;13.00;69.40
4312;DHT22;2169;49.086;9.284;2023-02-18T03:15:45;13.00;69.30
4312;DHT22;2169;49.086;9.284;2023-02-18T03:18:18;13.00;69.30
4312;DHT22;2169;49.086;9.284;2023-02-18T03:20:52;13.00;69.30
4312;DHT22;2169;49.086;9.284;2023-02-18T03:23:25;13.00;69.20
4312;DHT22;2169;49.086;9.284;2023-02-18T03:25:54;13.00;69.20
4312;DHT22;2169;49.086;9.284;2023-02-18T03:28:23;13.00;69.30
4312;DHT22;2169;49.086;9.284;2023-02-18T03:30:54;13.00;69.30
4312;DHT22;2169;49.086;9.284;2023-02-18T03:33:25;13.00;69.30
4312;DHT22;2169;49.086;9.284;2023-02-18T03:35:53;12.90;69.20
4312;DHT22;2169;49.086;9.284;2023-02-18T03:38:24;12.90;69.30
4312;DHT22;2169;49.086;9.284;2023-02-18T03:40:55;12.90;69.30
4312;DHT22;2169;49.086;9.284;2023-02-18T03:43:22;12.90;69.30
4312;DHT22;2169;49.086;9.284;2023-02-18T03:45:49;12.90;69.30
4312;DHT22;2169;49.086;9.284;2023-02-18T03:48:16;12.90;69.30
4312;DHT22;2169;49.086;9.284;2023-02-18T03:50:43;12.90;69.30
4312;DHT22;2169;49.086;9.284;2023-02-18T03:53:09;13.20;69.30
4312;DHT22;2169;49.086;9.284;2023-02-18T03:55:38;13.00;69.20
4312;DHT22;2169;49.086;9.284;2023-02-18T03:58:04;13.00;69.40
4312;DHT22;2169;49.086;9.284;2023-02-18T04:00:31;12.90;69.40
4312;DHT22;2169;49.086;9.284;2023-02-18T04:02:58;12.90;69.40
4312;DHT22;2169;49.086;9.284;2023-02-18T04:05:25;12.90;69.40
4312;DHT22;2169;49.086;9.284;2023-02-18T04:07:52;12.90;69.50
4312;DHT22;2169;49.086;9.284;2023-02-18T04:10:19;12.90;69.50
4312;DHT22;2169;49.086;9.284;2023-02-18T04:12:48;12.90;69.60
4312;DHT22;2169;49.086;9.284;2023-02-18T04:15:15;12.90;69.70
4312;DHT22;2169;49.086;9.284;2023-02-18T04:17:42;12.80;69.70
4312;DHT22;2169;49.086;9.284;2023-02-18T04:20:09;12.80;69.70
4312;DHT22;2169;49.086;9.284;2023-02-18T04:22:36;12.80;69.80
4312;DHT22;2169;49.086;9.284;2023-02-18T04:25:03;12.80;69.90
4312;DHT22;2169;49.086;9.284;2023-02-18T04:27:30;12.80;69.90
4312;DHT22;2169;49.086;9.284;2023-02-18T04:29:58;12.80;69.90
4312;DHT22;2169;49.086;9.284;2023-02-18T04:32:25;12.80;69.90
4312;DHT22;2169;49.086;9.284;2023-02-18T04:34:52;12.80;70.00
4312;DHT22;2169;49.086;9.284;2023-02-18T04:37:19;12.80;70.00
4312;DHT22;2169;49.086;9.284;2023-02-18T04:39:45;12.80;70.00
4312;DHT22;2169;49.086;9.284;2023-02-18T04:42:12;12.70;70.00
4312;DHT22;2169;49.086;9.284;2023-02-18T04:44:39;12.70;70.10
4312;DHT22;2169;49.086;9.284;2023-02-18T04:47:07;12.70;70.10
4312;DHT22;2169;49.086;9.284;2023-02-18T04:49:34;12.70;70.10
4312;DHT22;2169;49.086;9.284;2023-02-18T04:52:01;12.70;70.10
4312;DHT22;2169;49.086;9.284;2023-02-18T04:54:28;12.70;70.10
4312;DHT22;2169;49.086;9.284;2023-02-18T04:56:54;12.70;70.10
4312;DHT22;2169;49.086;9.284;2023-02-18T04:59:21;12.70;70.20
4312;DHT22;2169;49.086;9.284;2023-02-18T05:01:48;12.70;70.30
4312;DHT22;2169;49.086;9.284;2023-02-18T05:04:17;12.70;70.20
4312;DHT22;2169;49.086;9.284;2023-02-18T05:06:43;12.80;70.30
4312;DHT22;2169;49.086;9.284;2023-02-18T05:09:10;12.70;70.10
4312;DHT22;2169;49.086;9.284;2023-02-18T05:11:37;12.70;70.10
4312;DHT22;2169;49.086;9.284;2023-02-18T05:14:04;12.70;70.20
4312;DHT22;2169;49.086;9.284;2023-02-18T05:16:31;12.70;70.10
4312;DHT22;2169;49.086;9.284;2023-02-18T05:18:58;12.80;70.30
4312;DHT22;2169;49.086;9.284;2023-02-18T05:21:26;12.70;70.10
4312;DHT22;2169;49.086;9.284;2023-02-18T05:23:52;12.80;70.20
4312;DHT22;2169;49.086;9.284;2023-02-18T05:26:19;12.70;70.00
4312;DHT22;2169;49.086;9.284;2023-02-18T05:28:46;12.70;70.10
4312;DHT22;2169;49.086;9.284;2023-02-18T05:31:13;12.70;70.10
4312;DHT22;2169;49.086;9.284;2023-02-18T05:33:39;12.70;70.00
4312;DHT22;2169;49.086;9.284;2023-02-18T05:36:07;12.70;70.00
4312;DHT22;2169;49.086;9.284;2023-02-18T05:38:35;12.70;69.90
4312;DHT22;2169;49.086;9.284;2023-02-18T05:41:02;12.70;69.90
4312;DHT22;2169;49.086;9.284;2023-02-18T05:43:29;12.70;69.80
4312;DHT22;2169;49.086;9.284;2023-02-18T05:45:55;12.70;69.80
4312;DHT22;2169;49.086;9.284;2023-02-18T05:48:22;12.70;69.80
4312;DHT22;2169;49.086;9.284;2023-02-18T05:50:49;12.70;69.80
4312;DHT22;2169;49.086;9.284;2023-02-18T05:53:18;12.70;69.80
4312;DHT22;2169;49.086;9.284;2023-02-18T05:55:46;12.70;69.70
4312;DHT22;2169;49.086;9.284;2023-02-18T05:58:13;12.70;69.70
4312;DHT22;2169;49.086;9.284;2023-02-18T06:00:41;12.70;69.70
4312;DHT22;2169;49.086;9.284;2023-02-18T06:03:08;12.70;69.70
4312;DHT22;2169;49.086;9.284;2023-02-18T06:05:35;12.70;69.70
4312;DHT22;2169;49.086;9.284;2023-02-18T06:08:01;12.70;69.60
4312;DHT22;2169;49.086;9.284;2023-02-18T06:10:28;12.70;69.60
4312;DHT22;2169;49.086;9.284;2023-02-18T06:12:56;12.70;69.70
4312;DHT22;2169;49.086;9.284;2023-02-18T06:15:24;12.70;69.70
4312;DHT22;2169;49.086;9.284;2023-02-18T06:17:51;12.70;69.60
4312;DHT22;2169;49.086;9.284;2023-02-18T06:20:18;12.70;69.50
4312;DHT22;2169;49.086;9.284;2023-02-18T06:22:44;12.70;69.50
4312;DHT22;2169;49.086;9.284;2023-02-18T06:25:11;12.70;69.50
4312;DHT22;2169;49.086;9.284;2023-02-18T06:27:38;12.70;69.40
4312;DHT22;2169;49.086;9.284;2023-02-18T06:30:07;12.70;69.40
4312;DHT22;2169;49.086;9.284;2023-02-18T06:32:34;12.70;69.40
4312;DHT22;2169;49.086;9.284;2023-02-18T06:35:01;12.70;69.40
4312;DHT22;2169;49.086;9.284;2023-02-18T06:37:27;12.70;69.30
4312;DHT22;2169;49.086;9.284;2023-02-18T06:39:54;12.70;69.30
4312;DHT22;2169;49.086;9.284;2023-02-18T06:42:21;12.70;69.20
4312;DHT22;2169;49.086;9.284;2023-02-18T06:44:48;12.70;69.20
4312;DHT22;2169;49.086;9.284;2023-02-18T06:47:16;12.70;69.10
4312;DHT22;2169;49.086;9.284;2023-02-18T06:49:42;12.70;69.10
4312;DHT22;2169;49.086;9.284;2023-02-18T06:52:09;12.70;69.10
4312;DHT22;2169;49.086;9.284;2023-02-18T06:54:36;12.70;69.10
4312;DHT22;2169;49.086;9.284;2023-02-18T06:57:03;12.70;69.20
4312;DHT22;2169;49.086;9.284;2023-02-18T06:59:30;12.70;69.10
4312;DHT22;2169;49.086;9.284;2023-02-18T07:01:56;12.70;69.10
4312;DHT22;2169;49.086;9.284;2023-02-18T07:04:24;12.70;69.10
4312;DHT22;2169;49.086;9.284;2023-02-18T07:06:51;12.70;69.00
4312;DHT22;2169;49.086;9.284;2023-02-18T07:09:18;12.70;69.10
4312;DHT22;2169;49.086;9.284;2023-02-18T07:11:45;12.70;69.10
4312;DHT22;2169;49.086;9.284;2023-02-18T07:14:11;12.70;69.00
4312;DHT22;2169;49.086;9.284;2023-02-18T07:16:38;12.70;69.00
4312;DHT22;2169;49.086;9.284;2023-02-18T07:19:05;12.70;69.10
4312;DHT22;2169;49.086;9.284;2023-02-18T07:21:33;12.70;69.10
4312;DHT22;2169;49.086;9.284;2023-02-18T07:24:00;12.70;69.00
4312;DHT22;2169;49.086;9.284;2023-02-18T07:26:26;12.70;69.00
4312;DHT22;2169;49.086;9.284;2023-02-18T07:28:53;12.70;69.00
4312;DHT22;2169;49.086;9.284;2023-02-18T07:31:20;12.70;69.00
4312;DHT22;2169;49.086;9.284;2023-02-18T07:33:46;12.70;69.00
4312;DHT22;2169;49.086;9.284;2023-02-18T07:36:13;12.70;69.00
4312;DHT22;2169;49.086;9.284;2023-02-18T07:38:41;12.80;69.10
4312;DHT22;2169;49.086;9.284;2023-02-18T07:41:14;12.80;69.00
4312;DHT22;2169;49.086;9.284;2023-02-18T07:43:42;12.80;68.90
4312;DHT22;2169;49.086;9.284;2023-02-18T07:46:09;12.80;68.90
4312;DHT22;2169;49.086;9.284;2023-02-18T07:48:36;12.80;68.90
4312;DHT22;2169;49.086;9.284;2023-02-18T07:51:05;12.80;68.90
4312;DHT22;2169;49.086;9.284;2023-02-18T07:53:32;12.80;68.70
4312;DHT22;2169;49.086;9.284;2023-02-18T07:56:00;12.80;68.70
4312;DHT22;2169;49.086;9.284;2023-02-18T07:58:28;12.90;68.60
4312;DHT22;2169;49.086;9.284;2023-02-18T08:00:56;12.90;69.20
4312;DHT22;2169;49.086;9.284;2023-02-18T08:03:25;12.90;68.50
4312;DHT22;2169;49.086;9.284;2023-02-18T08:05:53;12.90;68.40
4312;DHT22;2169;49.086;9.284;2023-02-18T08:08:22;12.90;68.30
4312;DHT22;2169;49.086;9.284;2023-02-18T08:10:51;12.90;68.30
4312;DHT22;2169;49.086;9.284;2023-02-18T08:13:19;12.90;68.30
4312;DHT22;2169;49.086;9.284;2023-02-18T08:15:46;13.00;68.30
4312;DHT22;2169;49.086;9.284;2023-02-18T08:18:15;13.00;68.20
4312;DHT22;2169;49.086;9.284;2023-02-18T08:20:42;12.90;68.00
4312;DHT22;2169;49.086;9.284;2023-02-18T08:23:09;13.00;67.90
4312;DHT22;2169;49.086;9.284;2023-02-18T08:25:36;13.00;67.90
4312;DHT22;2169;49.086;9.284;2023-02-18T08:28:03;13.00;67.90
4312;DHT22;2169;49.086;9.284;2023-02-18T08:30:32;13.00;67.80
4312;DHT22;2169;49.086;9.284;2023-02-18T08:32:58;13.00;67.70
4312;DHT22;2169;49.086;9.284;2023-02-18T08:35:25;13.00;67.60
4312;DHT22;2169;49.086;9.284;2023-02-18T08:37:52;13.10;67.50
4312;DHT22;2169;49.086;9.284;2023-02-18T08:40:19;13.10;67.50
4312;DHT22;2169;49.086;9.284;2023-02-18T08:42:45;13.10;67.40
4312;DHT22;2169;49.086;9.284;2023-02-18T08:45:12;13.10;67.30
4312;DHT22;2169;49.086;9.284;2023-02-18T08:47:40;13.10;67.80
4312;DHT22;2169;49.086;9.284;2023-02-18T08:50:08;13.10;66.90
4312;DHT22;2169;49.086;9.284;2023-02-18T08:52:35;13.20;66.90
4312;DHT22;2169;49.086;9.284;2023-02-18T08:55:03;13.20;66.80
4312;DHT22;2169;49.086;9.284;2023-02-18T08:57:29;13.20;66.70
4312;DHT22;2169;49.086;9.284;2023-02-18T08:59:56;13.20;66.70
4312;DHT22;2169;49.086;9.284;2023-02-18T09:02:23;13.20;66.60
4312;DHT22;2169;49.086;9.284;2023-02-18T09:04:51;13.30;66.70
4312;DHT22;2169;49.086;9.284;2023-02-18T09:07:18;13.30;66.60
4312;DHT22;2169;49.086;9.284;2023-02-18T09:09:44;13.30;66.50
4312;DHT22;2169;49.086;9.284;2023-02-18T09:12:11;13.30;66.40
4312;DHT22;2169;49.086;9.284;2023-02-18T09:14:38;13.40;66.40
4312;DHT22;2169;49.086;9.284;2023-02-18T09:17:05;13.40;66.30
4312;DHT22;2169;49.086;9.284;2023-02-18T09:19:32;13.40;66.30
4312;DHT22;2169;49.086;9.284;2023-02-18T09:22:00;13.40;66.20
4312;DHT22;2169;49.086;9.284;2023-02-18T09:24:27;13.40;66.10
4312;DHT22;2169;49.086;9.284;2023-02-18T09:26:53;13.40;66.10
4312;DHT22;2169;49.086;9.284;2023-02-18T09:29:20;13.50;66.20
4312;DHT22;2169;49.086;9.284;2023-02-18T09:31:47;13.50;66.10
4312;DHT22;2169;49.086;9.284;2023-02-18T09:34:14;13.50;65.90
4312;DHT22;2169;49.086;9.284;2023-02-18T09:36:40;13.60;65.80
4312;DHT22;2169;49.086;9.284;2023-02-18T09:39:08;13.60;65.80
4312;DHT22;2169;49.086;9.284;2023-02-18T09:41:40;13.60;65.80
4312;DHT22;2169;49.086;9.284;2023-02-18T09:44:12;13.60;65.70
4312;DHT22;2169;49.086;9.284;2023-02-18T09:46:45;13.60;65.50
4312;DHT22;2169;49.086;9.284;2023-02-18T09:49:15;13.70;65.60
4312;DHT22;2169;49.086;9.284;2023-02-18T09:51:44;13.70;65.60
4312;DHT22;2169;49.086;9.284;2023-02-18T09:54:15;13.70;65.50
4312;DHT22;2169;49.086;9.284;2023-02-18T09:56:44;13.70;65.30
4312;DHT22;2169;49.086;9.284;2023-02-18T09:59:14;13.70;65.30
4312;DHT22;2169;49.086;9.284;2023-02-18T10:01:42;13.70;65.40
4312;DHT22;2169;49.086;9.284;2023-02-18T10:04:13;13.70;65.30
4312;DHT22;2169;49.086;9.284;2023-02-18T10:06:42;13.80;66.00
4312;DHT22;2169;49.086;9.284;2023-02-18T10:09:17;13.80;65.30
4312;DHT22;2169;49.086;9.284;2023-02-18T10:11:48;13.80;65.20
4312;DHT22;2169;49.086;9.284;2023-02-18T10:14:15;13.80;65.20
4312;DHT22;2169;49.086;9.284;2023-02-18T10:16:43;13.80;65.10
4312;DHT22;2169;49.086;9.284;2023-02-18T10:19:20;13.80;65.00
4312;DHT22;2169;49.086;9.284;2023-02-18T10:21:48;13.90;64.90
4312;DHT22;2169;49.086;9.284;2023-02-18T10:24:24;13.90;64.80
4312;DHT22;2169;49.086;9.284;2023-02-18T10:26:52;13.90;64.40
4312;DHT22;2169;49.086;9.284;2023-02-18T10:29:20;13.90;64.10
4312;DHT22;2169;49.086;9.284;2023-02-18T10:31:52;13.90;63.90
4312;DHT22;2169;49.086;9.284;2023-02-18T10:34:26;13.90;63.60
4312;DHT22;2169;49.086;9.284;2023-02-18T10:36:59;13.90;63.60
4312;DHT22;2169;49.086;9.284;2023-02-18T10:39:44;13.90;63.60
4312;DHT22;2169;49.086;9.284;2023-02-18T10:42:23;14.00;63.80
4312;DHT22;2169;49.086;9.284;2023-02-18T10:45:01;13.90;63.60
4312;DHT22;2169;49.086;9.284;2023-02-18T10:47:36;13.90;63.70
4312;DHT22;2169;49.086;9.284;2023-02-18T10:50:09;13.90;63.80
4312;DHT22;2169;49.086;9.284;2023-02-18T10:52:41;13.90;63.80
4312;DHT22;2169;49.086;9.284;2023-02-18T10:55:10;13.90;63.90
4312;DHT22;2169;49.086;9.284;2023-02-18T10:57:46;13.90;64.00
4312;DHT22;2169;49.086;9.284;2023-02-18T11:00:19;13.90;64.00
4312;DHT22;2169;49.086;9.284;2023-02-18T11:03:01;13.90;64.00
4312;DHT22;2169;49.086;9.284;2023-02-18T11:05:29;13.90;64.10
4312;DHT22;2169;49.086;9.284;2023-02-18T11:08:01;13.90;64.10
4312;DHT22;2169;49.086;9.284;2023-02-18T11:10:31;13.90;64.30
4312;DHT22;2169;49.086;9.284;2023-02-18T11:13:01;13.90;64.30
4312;DHT22;2169;49.086;9.284;2023-02-18T11:15:28;13.90;64.30
4312;DHT22;2169;49.086;9.284;2023-02-18T11:17:57;13.90;64.30
4312;DHT22;2169;49.086;9.284;2023-02-18T11:20:28;13.90;64.30
4312;DHT22;2169;49.086;9.284;2023-02-18T11:23:15;13.90;64.30
4312;DHT22;2169;49.086;9.284;2023-02-18T11:25:57;13.90;64.30
4312;DHT22;2169;49.086;9.284;2023-02-18T11:28:34;13.90;64.30
4312;DHT22;2169;49.086;9.284;2023-02-18T11:31:05;13.90;64.40
4312;DHT22;2169;49.086;9.284;2023-02-18T11:33:34;13.80;64.30
4312;DHT22;2169;49.086;9.284;2023-02-18T11:36:08;13.80;64.50
4312;DHT22;2169;49.086;9.284;2023-02-18T11:38:43;13.80;64.50
4312;DHT22;2169;49.086;9.284;2023-02-18T11:41:14;13.80;64.60
4312;DHT22;2169;49.086;9.284;2023-02-18T11:43:45;13.80;64.70
4312;DHT22;2169;49.086;9.284;2023-02-18T11:46:14;13.80;64.80
4312;DHT22;2169;49.086;9.284;2023-02-18T11:48:41;13.80;64.80
4312;DHT22;2169;49.086;9.284;2023-02-18T11:51:17;13.80;64.90
4312;DHT22;2169;49.086;9.284;2023-02-18T11:54:01;13.80;65.00
4312;DHT22;2169;49.086;9.284;2023-02-18T11:56:31;13.90;65.20
4312;DHT22;2169;49.086;9.284;2023-02-18T11:58:59;13.80;65.20
4312;DHT22;2169;49.086;9.284;2023-02-18T12:01:37;13.80;65.20
4312;DHT22;2169;49.086;9.284;2023-02-18T12:04:11;13.80;65.10
4312;DHT22;2169;49.086;9.284;2023-02-18T12:06:44;14.10;64.90
4312;DHT22;2169;49.086;9.284;2023-02-18T12:09:22;14.00;65.00
4312;DHT22;2169;49.086;9.284;2023-02-18T12:11:55;13.90;65.00
4312;DHT22;2169;49.086;9.284;2023-02-18T12:14:24;13.90;65.00
4312;DHT22;2169;49.086;9.284;2023-02-18T12:17:13;13.90;65.10
4312;DHT22;2169;49.086;9.284;2023-02-18T12:20:23;13.90;65.10
4312;DHT22;2169;49.086;9.284;2023-02-18T12:22:59;13.90;65.20
4312;DHT22;2169;49.086;9.284;2023-02-18T12:25:36;13.90;65.40
4312;DHT22;2169;49.086;9.284;2023-02-18T12:28:18;13.90;65.40
4312;DHT22;2169;49.086;9.284;2023-02-18T12:31:02;13.90;65.30
4312;DHT22;2169;49.086;9.284;2023-02-18T12:33:40;13.90;65.20
4312;DHT22;2169;49.086;9.284;2023-02-18T12:36:21;13.90;65.30
4312;DHT22;2169;49.086;9.284;2023-02-18T12:39:02;13.90;65.30
4312;DHT22;2169;49.086;9.284;2023-02-18T12:41:52;13.90;65.40
4312;DHT22;2169;49.086;9.284;2023-02-18T12:44:31;13.90;65.50
4312;DHT22;2169;49.086;9.284;2023-02-18T12:47:19;13.90;65.40
4312;DHT22;2169;49.086;9.284;2023-02-18T12:50:01;14.00;65.40
4312;DHT22;2169;49.086;9.284;2023-02-18T12:52:38;14.00;65.40
4312;DHT22;2169;49.086;9.284;2023-02-18T12:55:26;14.00;65.40
4312;DHT22;2169;49.086;9.284;2023-02-18T12:58:04;14.00;65.40
4312;DHT22;2169;49.086;9.284;2023-02-18T13:01:02;14.00;65.40
4312;DHT22;2169;49.086;9.284;2023-02-18T13:09:52;14.00;65.30
4312;DHT22;2169;49.086;9.284;2023-02-18T13:12:28;14.00;65.30
4312;DHT22;2169;49.086;9.284;2023-02-18T13:15:00;14.00;65.30
4312;DHT22;2169;49.086;9.284;2023-02-18T13:17:34;14.00;65.30
4312;DHT22;2169;49.086;9.284;2023-02-18T13:20:06;14.00;65.40
4312;DHT22;2169;49.086;9.284;2023-02-18T13:22:35;14.10;65.30
4312;DHT22;2169;49.086;9.284;2023-02-18T13:25:03;14.00;65.20
4312;DHT22;2169;49.086;9.284;2023-02-18T13:27:35;14.00;65.10
4312;DHT22;2169;49.086;9.284;2023-02-18T13:30:15;14.10;65.20
4312;DHT22;2169;49.086;9.284;2023-02-18T13:32:53;14.10;65.20
4312;DHT22;2169;49.086;9.284;2023-02-18T13:35:26;14.10;65.20
4312;DHT22;2169;49.086;9.284;2023-02-18T13:38:05;14.10;65.20
4312;DHT22;2169;49.086;9.284;2023-02-18T13:40:35;14.10;65.10
4312;DHT22;2169;49.086;9.284;2023-02-18T13:43:30;14.10;65.00
4312;DHT22;2169;49.086;9.284;2023-02-18T13:46:02;14.20;65.00
4312;DHT22;2169;49.086;9.284;2023-02-18T13:48:33;14.10;64.90
4312;DHT22;2169;49.086;9.284;2023-02-18T13:51:03;14.10;64.90
4312;DHT22;2169;49.086;9.284;2023-02-18T13:53:31;14.20;65.00
4312;DHT22;2169;49.086;9.284;2023-02-18T13:56:04;14.10;64.80
4312;DHT22;2169;49.086;9.284;2023-02-18T13:58:37;14.10;64.70
4312;DHT22;2169;49.086;9.284;2023-02-18T14:01:20;14.20;64.80
4312;DHT22;2169;49.086;9.284;2023-02-18T14:03:55;14.20;64.60
4312;DHT22;2169;49.086;9.284;2023-02-18T14:06:23;14.20;64.40
4312;DHT22;2169;49.086;9.284;2023-02-18T14:08:51;14.20;64.40
4312;DHT22;2169;49.086;9.284;2023-02-18T14:11:39;14.20;64.30
4312;DHT22;2169;49.086;9.284;2023-02-18T14:14:36;14.20;64.20
4312;DHT22;2169;49.086;9.284;2023-02-18T14:17:38;14.20;64.20
4312;DHT22;2169;49.086;9.284;2023-02-18T14:20:43;14.30;64.30
4312;DHT22;2169;49.086;9.284;2023-02-18T14:26:22;14.30;63.90
4312;DHT22;2169;49.086;9.284;2023-02-18T14:28:53;14.30;63.60
4312;DHT22;2169;49.086;9.284;2023-02-18T14:31:29;14.30;63.70
4312;DHT22;2169;49.086;9.284;2023-02-18T14:37:03;14.30;63.40
4312;DHT22;2169;49.086;9.284;2023-02-18T14:39:42;14.30;63.20
4312;DHT22;2169;49.086;9.284;2023-02-18T14:42:28;14.30;63.10
4312;DHT22;2169;49.086;9.284;2023-02-18T14:45:08;14.30;62.90
4312;DHT22;2169;49.086;9.284;2023-02-18T14:47:48;14.30;62.70
4312;DHT22;2169;49.086;9.284;2023-02-18T14:50:20;14.30;62.20
4312;DHT22;2169;49.086;9.284;2023-02-18T14:52:52;14.30;62.10
4312;DHT22;2169;49.086;9.284;2023-02-18T14:55:22;14.30;61.80
4312;DHT22;2169;49.086;9.284;2023-02-18T14:57:53;14.30;61.40
4312;DHT22;2169;49.086;9.284;2023-02-18T15:00:22;14.30;60.90
4312;DHT22;2169;49.086;9.284;2023-02-18T15:02:50;14.30;60.90
4312;DHT22;2169;49.086;9.284;2023-02-18T15:05:20;14.30;60.40
4312;DHT22;2169;49.086;9.284;2023-02-18T15:07:56;14.30;60.10
4312;DHT22;2169;49.086;9.284;2023-02-18T15:10:37;14.30;60.00
4312;DHT22;2169;49.086;9.284;2023-02-18T15:13:08;14.30;60.00
4312;DHT22;2169;49.086;9.284;2023-02-18T15:15:39;14.30;60.00
4312;DHT22;2169;49.086;9.284;2023-02-18T15:18:15;14.30;60.00
4312;DHT22;2169;49.086;9.284;2023-02-18T15:20:44;14.30;60.00
4312;DHT22;2169;49.086;9.284;2023-02-18T15:23:14;14.30;59.90
4312;DHT22;2169;49.086;9.284;2023-02-18T15:25:44;14.30;59.60
4312;DHT22;2169;49.086;9.284;2023-02-18T15:28:21;14.30;59.60
4312;DHT22;2169;49.086;9.284;2023-02-18T15:30:48;14.30;59.60
4312;DHT22;2169;49.086;9.284;2023-02-18T15:33:15;14.20;60.00
4312;DHT22;2169;49.086;9.284;2023-02-18T15:35:43;14.20;59.40
4312;DHT22;2169;49.086;9.284;2023-02-18T15:38:15;14.20;59.30
4312;DHT22;2169;49.086;9.284;2023-02-18T15:40:43;14.20;59.30
4312;DHT22;2169;49.086;9.284;2023-02-18T15:43:16;14.20;59.30
4312;DHT22;2169;49.086;9.284;2023-02-18T15:45:45;14.20;59.30
4312;DHT22;2169;49.086;9.284;2023-02-18T15:48:21;14.20;59.40
4312;DHT22;2169;49.086;9.284;2023-02-18T15:50:50;14.20;59.30
4312;DHT22;2169;49.086;9.284;2023-02-18T15:53:19;14.20;59.40
4312;DHT22;2169;49.086;9.284;2023-02-18T15:55:49;14.20;59.60
4312;DHT22;2169;49.086;9.284;2023-02-18T15:58:21;14.20;59.30
4312;DHT22;2169;49.086;9.284;2023-02-18T16:00:50;14.20;59.40
4312;DHT22;2169;49.086;9.284;2023-02-18T16:03:21;14.10;59.30
4312;DHT22;2169;49.086;9.284;2023-02-18T16:05:49;14.20;59.40
4312;DHT22;2169;49.086;9.284;2023-02-18T16:08:24;14.10;59.40
4312;DHT22;2169;49.086;9.284;2023-02-18T16:10:53;14.10;59.50
4312;DHT22;2169;49.086;9.284;2023-02-18T16:13:21;14.10;59.50
4312;DHT22;2169;49.086;9.284;2023-02-18T16:15:50;14.10;59.50
4312;DHT22;2169;49.086;9.284;2023-02-18T16:18:28;14.10;59.50
4312;DHT22;2169;49.086;9.284;2023-02-18T16:20:59;14.10;59.50
4312;DHT22;2169;49.086;9.284;2023-02-18T16:23:32;14.00;59.50
4312;DHT22;2169;49.086;9.284;2023-02-18T16:26:28;14.00;59.60
4312;DHT22;2169;49.086;9.284;2023-02-18T16:29:02;14.00;59.60
4312;DHT22;2169;49.086;9.284;2023-02-18T16:31:30;14.00;59.60
4312;DHT22;2169;49.086;9.284;2023-02-18T16:33:57;14.00;59.60
4312;DHT22;2169;49.086;9.284;2023-02-18T16:36:32;14.00;59.50
4312;DHT22;2169;49.086;9.284;2023-02-18T16:39:15;14.00;59.50
4312;DHT22;2169;49.086;9.284;2023-02-18T16:41:48;13.90;59.50